sensor_id;sensor_type;location;lat;lon;timestamp;pressure;altitude;pressure_sealevel;temperature;humidity
28306;BME280;7516;43.570;1.448;2023-12-29T00:01:03;100271.56;;;8.63;100.00
28306;BME280;7516;43.570;1.448;2023-12-29T00:03:32;100273.78;;;8.58;100.00
28306;BME280;7516;43.570;1.448;2023-12-29T00:06:03;100267.19;;;8.54;100.00
28306;BME280;7516;43.570;1.448;2023-12-29T00:08:30;100274.53;;;8.51;100.00
28306;BME280;7516;43.570;1.448;2023-12-29T00:10:58;100263.53;;;8.47;100.00
28306;BME280;7516;43.570;1.448;2023-12-29T00:13:26;100269.19;;;8.43;100.00
28306;BME280;7516;43.570;1.448;2023-12-29T00:15:54;100265.91;;;8.41;100.00
28306;BME280;7516;43.570;1.448;2023-12-29T00:18:21;100267.84;;;8.39;100.00
28306;BME280;7516;43.570;1.448;2023-12-29T00:20:51;100271.13;;;8.41;100.00
28306;BME280;7516;43.570;1.448;2023-12-29T00:23:18;100258.22;;;8.39;100.00
28306;BME280;7516;43.570;1.448;2023-12-29T00:25:45;100259.63;;;8.34;100.00
28306;BME280;7516;43.570;1.448;2023-12-29T00:28:13;100254.66;;;8.30;100.00
28306;BME280;7516;43.570;1.448;2023-12-29T00:30:41;100252.31;;;8.27;100.00
28306;BME280;7516;43.570;1.448;2023-12-29T00:33:08;100248.34;;;8.23;100.00
28306;BME280;7516;43.570;1.448;2023-12-29T00:35:37;100249.31;;;8.22;100.00
28306;BME280;7516;43.570;1.448;2023-12-29T00:38:06;100247.09;;;8.27;100.00
28306;BME280;7516;43.570;1.448;2023-12-29T00:40:34;100248.22;;;8.25;100.00
28306;BME280;7516;43.570;1.448;2023-12-29T00:43:02;100242.03;;;8.26;100.00
28306;BME280;7516;43.570;1.448;2023-12-29T00:45:29;100238.34;;;8.19;100.00
28306;BME280;7516;43.570;1.448;2023-12-29T00:47:59;100237.22;;;8.21;100.00
28306;BME280;7516;43.570;1.448;2023-12-29T00:50:26;100236.28;;;8.22;100.00
28306;BME280;7516;43.570;1.448;2023-12-29T00:52:54;100243.13;;;8.23;100.00
28306;BME280;7516;43.570;1.448;2023-12-29T00:55:23;100244.38;;;8.19;100.00
28306;BME280;7516;43.570;1.448;2023-12-29T00:57:50;100243.03;;;8.15;100.00
28306;BME280;7516;43.570;1.448;2023-12-29T01:00:18;100242.47;;;8.12;100.00
28306;BME280;7516;43.570;1.448;2023-12-29T01:02:45;100245.53;;;8.07;100.00
28306;BME280;7516;43.570;1.448;2023-12-29T01:05:15;100248.16;;;8.07;100.00
28306;BME280;7516;43.570;1.448;2023-12-29T01:07:43;100240.47;;;7.96;100.00
28306;BME280;7516;43.570;1.448;2023-12-29T01:10:10;100234.88;;;7.91;100.00
28306;BME280;7516;43.570;1.448;2023-12-29T01:12:39;100237.75;;;7.88;100.00
28306;BME280;7516;43.570;1.448;2023-12-29T01:15:08;100240.66;;;7.85;100.00
28306;BME280;7516;43.570;1.448;2023-12-29T01:17:35;100253.41;;;7.88;100.00
28306;BME280;7516;43.570;1.448;2023-12-29T01:20:03;100251.19;;;7.93;100.00
28306;BME280;7516;43.570;1.448;2023-12-29T01:22:31;100260.53;;;7.96;100.00
28306;BME280;7516;43.570;1.448;2023-12-29T01:24:59;100261.63;;;7.93;100.00
28306;BME280;7516;43.570;1.448;2023-12-29T01:27:27;100262.47;;;7.84;100.00
28306;BME280;7516;43.570;1.448;2023-12-29T01:29:56;100260.56;;;7.86;100.00
28306;BME280;7516;43.570;1.448;2023-12-29T01:32:24;100260.16;;;7.81;100.00
28306;BME280;7516;43.570;1.448;2023-12-29T01:34:52;100261.41;;;7.77;100.00
28306;BME280;7516;43.570;1.448;2023-12-29T01:37:20;100271.00;;;7.76;100.00
28306;BME280;7516;43.570;1.448;2023-12-29T01:39:48;100264.69;;;7.79;100.00
28306;BME280;7516;43.570;1.448;2023-12-29T01:42:15;100270.19;;;7.76;100.00
28306;BME280;7516;43.570;1.448;2023-12-29T01:44:43;100267.88;;;7.73;100.00
28306;BME280;7516;43.570;1.448;2023-12-29T01:47:14;100267.75;;;7.65;100.00
28306;BME280;7516;43.570;1.448;2023-12-29T01:49:44;100266.09;;;7.64;100.00
28306;BME280;7516;43.570;1.448;2023-12-29T01:52:12;100267.19;;;7.61;100.00
28306;BME280;7516;43.570;1.448;2023-12-29T01:54:40;100259.94;;;7.55;100.00
28306;BME280;7516;43.570;1.448;2023-12-29T01:57:09;100258.81;;;7.48;100.00
28306;BME280;7516;43.570;1.448;2023-12-29T01:59:37;100254.28;;;7.50;100.00
28306;BME280;7516;43.570;1.448;2023-12-29T02:02:05;100252.38;;;7.42;100.00
28306;BME280;7516;43.570;1.448;2023-12-29T02:04:34;100258.16;;;7.46;100.00
28306;BME280;7516;43.570;1.448;2023-12-29T02:07:03;100258.28;;;7.44;100.00
28306;BME280;7516;43.570;1.448;2023-12-29T02:09:30;100255.25;;;7.39;100.00
28306;BME280;7516;43.570;1.448;2023-12-29T02:12:00;100252.38;;;7.42;100.00
28306;BME280;7516;43.570;1.448;2023-12-29T02:14:27;100254.59;;;7.37;100.00
28306;BME280;7516;43.570;1.448;2023-12-29T02:17:01;100259.53;;;7.40;100.00
28306;BME280;7516;43.570;1.448;2023-12-29T02:19:39;100261.47;;;7.38;100.00
28306;BME280;7516;43.570;1.448;2023-12-29T02:22:08;100254.31;;;7.40;100.00
28306;BME280;7516;43.570;1.448;2023-12-29T02:24:36;100245.81;;;7.38;100.00
28306;BME280;7516;43.570;1.448;2023-12-29T02:27:12;100254.31;;;7.40;100.00
28306;BME280;7516;43.570;1.448;2023-12-29T02:29:45;100252.00;;;7.37;100.00
28306;BME280;7516;43.570;1.448;2023-12-29T02:32:18;100249.38;;;7.37;100.00
28306;BME280;7516;43.570;1.448;2023-12-29T02:34:48;100246.91;;;7.36;100.00
28306;BME280;7516;43.570;1.448;2023-12-29T02:37:18;100238.00;;;7.38;100.00
28306;BME280;7516;43.570;1.448;2023-12-29T02:39:46;100245.00;;;7.38;100.00
28306;BME280;7516;43.570;1.448;2023-12-29T02:42:15;100235.22;;;7.30;100.00
28306;BME280;7516;43.570;1.448;2023-12-29T02:44:43;100230.44;;;7.26;100.00
28306;BME280;7516;43.570;1.448;2023-12-29T02:47:11;100228.94;;;7.23;100.00
28306;BME280;7516;43.570;1.448;2023-12-29T02:49:38;100217.16;;;7.19;100.00
28306;BME280;7516;43.570;1.448;2023-12-29T02:52:06;100211.38;;;7.15;100.00
28306;BME280;7516;43.570;1.448;2023-12-29T02:54:33;100194.22;;;7.13;100.00
28306;BME280;7516;43.570;1.448;2023-12-29T02:57:01;100194.91;;;7.15;100.00
28306;BME280;7516;43.570;1.448;2023-12-29T02:59:30;100186.97;;;7.16;100.00
28306;BME280;7516;43.570;1.448;2023-12-29T03:01:57;100182.97;;;7.12;100.00
28306;BME280;7516;43.570;1.448;2023-12-29T03:04:25;100193.00;;;7.07;100.00
28306;BME280;7516;43.570;1.448;2023-12-29T03:06:52;100191.09;;;7.09;100.00
28306;BME280;7516;43.570;1.448;2023-12-29T03:09:20;100188.50;;;7.09;100.00
28306;BME280;7516;43.570;1.448;2023-12-29T03:11:47;100178.88;;;7.10;100.00
28306;BME280;7516;43.570;1.448;2023-12-29T03:14:15;100175.31;;;7.11;100.00
28306;BME280;7516;43.570;1.448;2023-12-29T03:16:44;100176.28;;;7.10;100.00
28306;BME280;7516;43.570;1.448;2023-12-29T03:19:11;100177.25;;;7.09;100.00
28306;BME280;7516;43.570;1.448;2023-12-29T03:21:39;100166.94;;;7.07;100.00
28306;BME280;7516;43.570;1.448;2023-12-29T03:24:07;100168.22;;;7.03;100.00
28306;BME280;7516;43.570;1.448;2023-12-29T03:26:34;100165.44;;;7.05;100.00
28306;BME280;7516;43.570;1.448;2023-12-29T03:29:02;100164.09;;;7.01;100.00
28306;BME280;7516;43.570;1.448;2023-12-29T03:31:29;100163.25;;;7.00;100.00
28306;BME280;7516;43.570;1.448;2023-12-29T03:33:58;100144.59;;;7.05;100.00
28306;BME280;7516;43.570;1.448;2023-12-29T03:36:25;100149.41;;;7.00;100.00
28306;BME280;7516;43.570;1.448;2023-12-29T03:38:53;100149.41;;;7.00;100.00
28306;BME280;7516;43.570;1.448;2023-12-29T03:41:20;100150.94;;;6.93;100.00
28306;BME280;7516;43.570;1.448;2023-12-29T03:43:48;100149.69;;;6.97;100.00
28306;BME280;7516;43.570;1.448;2023-12-29T03:46:16;100151.06;;;7.01;100.00
28306;BME280;7516;43.570;1.448;2023-12-29T03:48:44;100144.59;;;7.05;100.00
28306;BME280;7516;43.570;1.448;2023-12-29T03:51:13;100145.56;;;7.04;100.00
28306;BME280;7516;43.570;1.448;2023-12-29T03:53:41;100142.69;;;7.07;100.00
28306;BME280;7516;43.570;1.448;2023-12-29T03:56:16;100150.91;;;7.12;100.00
28306;BME280;7516;43.570;1.448;2023-12-29T03:58:43;100149.25;;;7.21;100.00
28306;BME280;7516;43.570;1.448;2023-12-29T04:01:11;100142.66;;;7.16;100.00
28306;BME280;7516;43.570;1.448;2023-12-29T04:03:39;100143.34;;;7.18;100.00
28306;BME280;7516;43.570;1.448;2023-12-29T04:06:06;100154.88;;;7.16;100.00
28306;BME280;7516;43.570;1.448;2023-12-29T04:08:36;100144.88;;;7.11;100.00
28306;BME280;7516;43.570;1.448;2023-12-29T04:11:04;100149.28;;;7.11;100.00
28306;BME280;7516;43.570;1.448;2023-12-29T04:13:32;100159.97;;;7.08;100.00
28306;BME280;7516;43.570;1.448;2023-12-29T04:16:00;100159.69;;;7.11;100.00
28306;BME280;7516;43.570;1.448;2023-12-29T04:18:28;100150.09;;;7.11;100.00
28306;BME280;7516;43.570;1.448;2023-12-29T04:20:56;100144.88;;;7.11;100.00
28306;BME280;7516;43.570;1.448;2023-12-29T04:23:23;100152.28;;;7.16;100.00
28306;BME280;7516;43.570;1.448;2023-12-29T04:25:53;100144.72;;;7.23;100.00
28306;BME280;7516;43.570;1.448;2023-12-29T04:28:20;100148.00;;;7.15;100.00
28306;BME280;7516;43.570;1.448;2023-12-29T04:30:47;100143.91;;;7.12;100.00
28306;BME280;7516;43.570;1.448;2023-12-29T04:33:15;100150.75;;;7.04;100.00
28306;BME280;7516;43.570;1.448;2023-12-29T04:35:42;100143.78;;;7.04;100.00
28306;BME280;7516;43.570;1.448;2023-12-29T04:38:10;100136.13;;;7.03;100.00
28306;BME280;7516;43.570;1.448;2023-12-29T04:40:37;100135.28;;;7.02;100.00
28306;BME280;7516;43.570;1.448;2023-12-29T04:43:06;100132.81;;;7.01;100.00
28306;BME280;7516;43.570;1.448;2023-12-29T04:45:33;100132.81;;;7.01;100.00
28306;BME280;7516;43.570;1.448;2023-12-29T04:48:01;100132.81;;;7.01;100.00
28306;BME280;7516;43.570;1.448;2023-12-29T04:50:28;100128.56;;;7.00;100.00
28306;BME280;7516;43.570;1.448;2023-12-29T04:52:56;100125.81;;;7.01;100.00
28306;BME280;7516;43.570;1.448;2023-12-29T04:55:23;100126.78;;;7.00;100.00
28306;BME280;7516;43.570;1.448;2023-12-29T04:57:51;100129.53;;;6.99;100.00
28306;BME280;7516;43.570;1.448;2023-12-29T05:00:20;100126.22;;;6.97;100.00
28306;BME280;7516;43.570;1.448;2023-12-29T05:02:48;100128.97;;;7.05;100.00
28306;BME280;7516;43.570;1.448;2023-12-29T05:05:15;100126.09;;;7.08;100.00
28306;BME280;7516;43.570;1.448;2023-12-29T05:07:42;100127.47;;;7.02;100.00
28306;BME280;7516;43.570;1.448;2023-12-29T05:10:10;100114.97;;;7.06;100.00
28306;BME280;7516;43.570;1.448;2023-12-29T05:12:37;100111.16;;;7.10;100.00
28306;BME280;7516;43.570;1.448;2023-12-29T05:15:06;100114.72;;;7.09;100.00
28306;BME280;7516;43.570;1.448;2023-12-29T05:17:35;100116.34;;;7.10;100.00
28306;BME280;7516;43.570;1.448;2023-12-29T05:20:03;100111.66;;;7.13;100.00
28306;BME280;7516;43.570;1.448;2023-12-29T05:22:31;100111.66;;;7.13;100.00
28306;BME280;7516;43.570;1.448;2023-12-29T05:24:58;100111.25;;;7.18;100.00
28306;BME280;7516;43.570;1.448;2023-12-29T05:27:26;100119.34;;;7.15;100.00
28306;BME280;7516;43.570;1.448;2023-12-29T05:29:54;100113.75;;;7.10;100.00
28306;BME280;7516;43.570;1.448;2023-12-29T05:32:21;100113.31;;;7.05;100.00
28306;BME280;7516;43.570;1.448;2023-12-29T05:34:50;100109.38;;;7.01;100.00
28306;BME280;7516;43.570;1.448;2023-12-29T05:37:17;100105.38;;;6.97;100.00
28306;BME280;7516;43.570;1.448;2023-12-29T05:39:45;100104.72;;;6.95;100.00
28306;BME280;7516;43.570;1.448;2023-12-29T05:42:12;100109.25;;;6.93;100.00
28306;BME280;7516;43.570;1.448;2023-12-29T05:44:40;100107.88;;;6.89;100.00
28306;BME280;7516;43.570;1.448;2023-12-29T05:47:07;100113.06;;;6.89;100.00
28306;BME280;7516;43.570;1.448;2023-12-29T05:49:35;100112.38;;;6.87;100.00
28306;BME280;7516;43.570;1.448;2023-12-29T05:52:06;100110.59;;;6.87;100.00
28306;BME280;7516;43.570;1.448;2023-12-29T05:54:34;100107.03;;;6.88;100.00
28306;BME280;7516;43.570;1.448;2023-12-29T05:57:02;100117.75;;;6.85;100.00
28306;BME280;7516;43.570;1.448;2023-12-29T05:59:29;100112.94;;;6.80;100.00
28306;BME280;7516;43.570;1.448;2023-12-29T06:01:57;100117.19;;;6.82;100.00
28306;BME280;7516;43.570;1.448;2023-12-29T06:04:24;100115.00;;;6.87;100.00
28306;BME280;7516;43.570;1.448;2023-12-29T06:06:52;100121.19;;;6.86;100.00
28306;BME280;7516;43.570;1.448;2023-12-29T06:09:20;100113.38;;;6.86;100.00
28306;BME280;7516;43.570;1.448;2023-12-29T06:11:48;100111.28;;;6.79;100.00
28306;BME280;7516;43.570;1.448;2023-12-29T06:14:17;100113.09;;;6.79;100.00
28306;BME280;7516;43.570;1.448;2023-12-29T06:16:44;100111.16;;;6.71;100.00
28306;BME280;7516;43.570;1.448;2023-12-29T06:19:11;100110.34;;;6.71;100.00
28306;BME280;7516;43.570;1.448;2023-12-29T06:21:41;100110.34;;;6.71;100.00
28306;BME280;7516;43.570;1.448;2023-12-29T06:24:10;100113.78;;;6.81;100.00
28306;BME280;7516;43.570;1.448;2023-12-29T06:26:39;100120.06;;;6.88;100.00
28306;BME280;7516;43.570;1.448;2023-12-29T06:29:09;100115.28;;;6.93;100.00
28306;BME280;7516;43.570;1.448;2023-12-29T06:31:40;100114.16;;;6.96;100.00
28306;BME280;7516;43.570;1.448;2023-12-29T06:34:08;100115.53;;;7.00;100.00
28306;BME280;7516;43.570;1.448;2023-12-29T06:36:35;100115.53;;;7.00;100.00
28306;BME280;7516;43.570;1.448;2023-12-29T06:39:03;100118.72;;;6.94;100.00
28306;BME280;7516;43.570;1.448;2023-12-29T06:41:30;100115.53;;;6.90;100.00
28306;BME280;7516;43.570;1.448;2023-12-29T06:43:59;100121.97;;;6.96;100.00
28306;BME280;7516;43.570;1.448;2023-12-29T06:46:26;100123.63;;;6.97;100.00
28306;BME280;7516;43.570;1.448;2023-12-29T06:48:54;100125.41;;;6.96;100.00
28306;BME280;7516;43.570;1.448;2023-12-29T06:51:21;100128.31;;;6.93;100.00
28306;BME280;7516;43.570;1.448;2023-12-29T06:53:50;100124.84;;;7.12;100.00
28306;BME280;7516;43.570;1.448;2023-12-29T06:56:18;100135.56;;;7.09;100.00
28306;BME280;7516;43.570;1.448;2023-12-29T06:58:45;100123.88;;;7.13;100.00
28306;BME280;7516;43.570;1.448;2023-12-29T07:01:14;100133.66;;;7.01;100.00
28306;BME280;7516;43.570;1.448;2023-12-29T07:03:43;100135.28;;;7.02;100.00
28306;BME280;7516;43.570;1.448;2023-12-29T07:06:10;100135.00;;;7.05;100.00
28306;BME280;7516;43.570;1.448;2023-12-29T07:08:38;100126.91;;;7.08;100.00
28306;BME280;7516;43.570;1.448;2023-12-29T07:11:10;100133.63;;;7.11;100.00
28306;BME280;7516;43.570;1.448;2023-12-29T07:13:38;100128.13;;;7.14;100.00
28306;BME280;7516;43.570;1.448;2023-12-29T07:16:06;100134.59;;;7.10;100.00
28306;BME280;7516;43.570;1.448;2023-12-29T07:18:35;100132.81;;;7.10;100.00
28306;BME280;7516;43.570;1.448;2023-12-29T07:21:03;100135.69;;;7.17;100.00
28306;BME280;7516;43.570;1.448;2023-12-29T07:23:30;100146.22;;;7.25;100.00
28306;BME280;7516;43.570;1.448;2023-12-29T07:25:58;100151.69;;;7.22;100.00
28306;BME280;7516;43.570;1.448;2023-12-29T07:28:25;100149.53;;;7.17;100.00
28306;BME280;7516;43.570;1.448;2023-12-29T07:30:53;100154.03;;;7.25;100.00
28306;BME280;7516;43.570;1.448;2023-12-29T07:33:20;100153.91;;;7.17;100.00
28306;BME280;7516;43.570;1.448;2023-12-29T07:35:51;100166.25;;;7.15;100.00
28306;BME280;7516;43.570;1.448;2023-12-29T07:38:19;100164.59;;;7.14;100.00
28306;BME280;7516;43.570;1.448;2023-12-29T07:40:46;100157.75;;;7.13;100.00
28306;BME280;7516;43.570;1.448;2023-12-29T07:43:14;100150.34;;;7.18;100.00
28306;BME280;7516;43.570;1.448;2023-12-29T07:45:42;100146.50;;;7.22;100.00
28306;BME280;7516;43.570;1.448;2023-12-29T07:48:10;100151.44;;;7.25;100.00
28306;BME280;7516;43.570;1.448;2023-12-29T07:50:38;100152.00;;;7.29;100.00
28306;BME280;7516;43.570;1.448;2023-12-29T07:53:06;100154.16;;;7.33;100.00
28306;BME280;7516;43.570;1.448;2023-12-29T07:55:37;100154.16;;;7.33;100.00
28306;BME280;7516;43.570;1.448;2023-12-29T07:58:06;100158.28;;;7.36;100.00
28306;BME280;7516;43.570;1.448;2023-12-29T08:00:36;100151.56;;;7.33;100.00
28306;BME280;7516;43.570;1.448;2023-12-29T08:03:04;100154.16;;;7.33;100.00
28306;BME280;7516;43.570;1.448;2023-12-29T08:05:33;100158.97;;;7.38;100.00
28306;BME280;7516;43.570;1.448;2023-12-29T08:08:01;100163.88;;;7.41;100.00
28306;BME280;7516;43.570;1.448;2023-12-29T08:10:30;100165.25;;;7.45;100.00
28306;BME280;7516;43.570;1.448;2023-12-29T08:12:59;100175.69;;;7.45;100.00
28306;BME280;7516;43.570;1.448;2023-12-29T08:15:26;100189.81;;;7.52;100.00
28306;BME280;7516;43.570;1.448;2023-12-29T08:17:55;100194.66;;;7.37;100.00
28306;BME280;7516;43.570;1.448;2023-12-29T08:20:22;100191.06;;;7.38;100.00
28306;BME280;7516;43.570;1.448;2023-12-29T08:22:50;100194.09;;;7.34;100.00
28306;BME280;7516;43.570;1.448;2023-12-29T08:25:18;100188.75;;;7.35;100.00
28306;BME280;7516;43.570;1.448;2023-12-29T08:27:47;100192.56;;;7.31;100.00
28306;BME280;7516;43.570;1.448;2023-12-29T08:30:14;100185.44;;;7.33;100.00
28306;BME280;7516;43.570;1.448;2023-12-29T08:32:42;100191.72;;;7.40;100.00
28306;BME280;7516;43.570;1.448;2023-12-29T08:35:09;100190.09;;;7.39;100.00
28306;BME280;7516;43.570;1.448;2023-12-29T08:37:37;100196.81;;;7.42;100.00
28306;BME280;7516;43.570;1.448;2023-12-29T08:40:05;100196.81;;;7.51;100.00
28306;BME280;7516;43.570;1.448;2023-12-29T08:42:33;100197.75;;;7.60;100.00
28306;BME280;7516;43.570;1.448;2023-12-29T08:45:03;100213.94;;;7.73;100.00
28306;BME280;7516;43.570;1.448;2023-12-29T08:47:31;100217.38;;;7.64;100.00
28306;BME280;7516;43.570;1.448;2023-12-29T08:49:58;100224.38;;;7.64;100.00
28306;BME280;7516;43.570;1.448;2023-12-29T08:52:27;100225.84;;;7.76;100.00
28306;BME280;7516;43.570;1.448;2023-12-29T08:54:54;100217.75;;;7.79;100.00
28306;BME280;7516;43.570;1.448;2023-12-29T08:57:22;100221.56;;;7.84;100.00
28306;BME280;7516;43.570;1.448;2023-12-29T08:59:49;100227.44;;;7.96;100.00
28306;BME280;7516;43.570;1.448;2023-12-29T09:02:18;100244.16;;;8.03;100.00
28306;BME280;7516;43.570;1.448;2023-12-29T09:04:46;100240.69;;;8.12;100.00
28306;BME280;7516;43.570;1.448;2023-12-29T09:07:13;100238.34;;;8.19;100.00
28306;BME280;7516;43.570;1.448;2023-12-29T09:09:41;100240.66;;;8.22;100.00
28306;BME280;7516;43.570;1.448;2023-12-29T09:12:08;100220.75;;;8.21;100.00
28306;BME280;7516;43.570;1.448;2023-12-29T09:14:36;100223.91;;;8.24;100.00
28306;BME280;7516;43.570;1.448;2023-12-29T09:17:03;100217.84;;;8.34;100.00
28306;BME280;7516;43.570;1.448;2023-12-29T09:19:32;100204.06;;;8.41;100.00
28306;BME280;7516;43.570;1.448;2023-12-29T09:22:00;100199.34;;;8.45;100.00
28306;BME280;7516;43.570;1.448;2023-12-29T09:24:28;100206.81;;;8.40;100.00
28306;BME280;7516;43.570;1.448;2023-12-29T09:26:55;100214.72;;;8.48;100.00
28306;BME280;7516;43.570;1.448;2023-12-29T09:29:22;100223.75;;;8.53;100.00
28306;BME280;7516;43.570;1.448;2023-12-29T09:31:50;100237.56;;;8.46;100.00
28306;BME280;7516;43.570;1.448;2023-12-29T09:34:18;100242.97;;;8.62;100.00
28306;BME280;7516;43.570;1.448;2023-12-29T09:36:47;100242.03;;;8.53;100.00
28306;BME280;7516;43.570;1.448;2023-12-29T09:39:14;100229.53;;;8.57;100.00
28306;BME280;7516;43.570;1.448;2023-12-29T09:41:46;100236.22;;;8.69;100.00
28306;BME280;7516;43.570;1.448;2023-12-29T09:44:14;100252.78;;;8.78;100.00
28306;BME280;7516;43.570;1.448;2023-12-29T09:46:42;100257.56;;;8.82;100.00
28306;BME280;7516;43.570;1.448;2023-12-29T09:49:10;100258.97;;;8.77;100.00
28306;BME280;7516;43.570;1.448;2023-12-29T09:51:39;100268.22;;;8.71;100.00
28306;BME280;7516;43.570;1.448;2023-12-29T09:54:10;100268.59;;;8.76;100.00
28306;BME280;7516;43.570;1.448;2023-12-29T09:56:38;100264.72;;;8.80;100.00
28306;BME280;7516;43.570;1.448;2023-12-29T09:59:07;100262.19;;;8.88;100.00
28306;BME280;7516;43.570;1.448;2023-12-29T10:01:37;100264.47;;;9.01;100.00
28306;BME280;7516;43.570;1.448;2023-12-29T10:04:05;100257.81;;;9.06;100.00
28306;BME280;7516;43.570;1.448;2023-12-29T10:06:36;100254.28;;;9.16;100.00
28306;BME280;7516;43.570;1.448;2023-12-29T10:09:10;100250.28;;;9.21;100.00
28306;BME280;7516;43.570;1.448;2023-12-29T10:11:42;100250.50;;;9.28;100.00
28306;BME280;7516;43.570;1.448;2023-12-29T10:14:18;100251.25;;;9.38;100.00
28306;BME280;7516;43.570;1.448;2023-12-29T10:16:56;100254.75;;;9.47;100.00
28306;BME280;7516;43.570;1.448;2023-12-29T10:19:32;100254.28;;;9.51;100.00
28306;BME280;7516;43.570;1.448;2023-12-29T10:22:11;100258.09;;;9.57;100.00
28306;BME280;7516;43.570;1.448;2023-12-29T10:24:42;100257.34;;;9.64;100.00
28306;BME280;7516;43.570;1.448;2023-12-29T10:27:12;100252.09;;;9.64;100.00
28306;BME280;7516;43.570;1.448;2023-12-29T10:29:39;100257.38;;;9.72;100.00
28306;BME280;7516;43.570;1.448;2023-12-29T10:32:07;100256.56;;;9.72;100.00
28306;BME280;7516;43.570;1.448;2023-12-29T10:34:35;100253.84;;;9.81;100.00
28306;BME280;7516;43.570;1.448;2023-12-29T10:37:03;100256.81;;;9.87;100.00
28306;BME280;7516;43.570;1.448;2023-12-29T10:39:41;100261.19;;;9.78;100.00
28306;BME280;7516;43.570;1.448;2023-12-29T10:42:21;100258.34;;;9.71;100.00
28306;BME280;7516;43.570;1.448;2023-12-29T10:45:05;100258.66;;;9.68;100.00
28306;BME280;7516;43.570;1.448;2023-12-29T10:47:34;100254.91;;;9.71;100.00
28306;BME280;7516;43.570;1.448;2023-12-29T10:50:03;100260.63;;;9.66;100.00
28306;BME280;7516;43.570;1.448;2023-12-29T10:52:32;100260.97;;;9.71;100.00
28306;BME280;7516;43.570;1.448;2023-12-29T10:55:09;100255.59;;;9.73;100.00
28306;BME280;7516;43.570;1.448;2023-12-29T10:57:37;100251.34;;;9.72;100.00
28306;BME280;7516;43.570;1.448;2023-12-29T11:00:06;100243.34;;;9.73;100.00
28306;BME280;7516;43.570;1.448;2023-12-29T11:02:34;100239.94;;;9.81;100.00
28306;BME280;7516;43.570;1.448;2023-12-29T11:05:02;100229.91;;;9.76;100.00
28306;BME280;7516;43.570;1.448;2023-12-29T11:07:35;100235.69;;;9.80;100.00
28306;BME280;7516;43.570;1.448;2023-12-29T11:10:07;100226.22;;;9.87;100.00
28306;BME280;7516;43.570;1.448;2023-12-29T11:12:35;100217.78;;;9.93;100.00
28306;BME280;7516;43.570;1.448;2023-12-29T11:15:05;100221.91;;;10.04;100.00
28306;BME280;7516;43.570;1.448;2023-12-29T11:17:35;100216.56;;;10.13;100.00
28306;BME280;7516;43.570;1.448;2023-12-29T11:20:03;100209.47;;;10.32;100.00
28306;BME280;7516;43.570;1.448;2023-12-29T11:22:32;100195.56;;;10.39;100.00
28306;BME280;7516;43.570;1.448;2023-12-29T11:25:00;100202.47;;;10.48;100.00
28306;BME280;7516;43.570;1.448;2023-12-29T11:27:30;100203.47;;;10.55;100.00
28306;BME280;7516;43.570;1.448;2023-12-29T11:29:58;100197.78;;;10.68;100.00
28306;BME280;7516;43.570;1.448;2023-12-29T11:32:34;100201.91;;;10.79;100.00
28306;BME280;7516;43.570;1.448;2023-12-29T11:35:12;100197.66;;;10.86;100.00
28306;BME280;7516;43.570;1.448;2023-12-29T11:38:01;100192.78;;;10.99;100.00
28306;BME280;7516;43.570;1.448;2023-12-29T11:40:35;100181.13;;;11.02;100.00
28306;BME280;7516;43.570;1.448;2023-12-29T11:43:08;100178.50;;;11.10;100.00
28306;BME280;7516;43.570;1.448;2023-12-29T11:45:37;100177.50;;;11.19;100.00
28306;BME280;7516;43.570;1.448;2023-12-29T11:48:06;100163.25;;;11.29;100.00
28306;BME280;7516;43.570;1.448;2023-12-29T11:50:34;100161.94;;;11.42;100.00
28306;BME280;7516;43.570;1.448;2023-12-29T11:53:03;100157.66;;;11.49;100.00
28306;BME280;7516;43.570;1.448;2023-12-29T11:55:34;100154.69;;;11.60;100.00
28306;BME280;7516;43.570;1.448;2023-12-29T11:58:02;100156.59;;;11.74;100.00
28306;BME280;7516;43.570;1.448;2023-12-29T12:00:47;100156.25;;;11.93;100.00
28306;BME280;7516;43.570;1.448;2023-12-29T12:03:16;100153.59;;;12.01;100.00
28306;BME280;7516;43.570;1.448;2023-12-29T12:05:46;100141.56;;;12.07;100.00
28306;BME280;7516;43.570;1.448;2023-12-29T12:08:28;100151.59;;;12.12;100.00
28306;BME280;7516;43.570;1.448;2023-12-29T12:10:56;100142.72;;;12.13;100.00
28306;BME280;7516;43.570;1.448;2023-12-29T12:13:43;100137.09;;;12.16;100.00
28306;BME280;7516;43.570;1.448;2023-12-29T12:16:48;100137.91;;;12.16;100.00
28306;BME280;7516;43.570;1.448;2023-12-29T12:19:16;100139.41;;;12.19;100.00
28306;BME280;7516;43.570;1.448;2023-12-29T12:21:46;100134.13;;;12.19;100.00
28306;BME280;7516;43.570;1.448;2023-12-29T12:24:17;100130.53;;;12.20;100.00
28306;BME280;7516;43.570;1.448;2023-12-29T12:26:45;100122.94;;;12.25;100.00
28306;BME280;7516;43.570;1.448;2023-12-29T12:29:14;100126.69;;;12.30;100.00
28306;BME280;7516;43.570;1.448;2023-12-29T12:31:55;100119.28;;;12.34;100.00
28306;BME280;7516;43.570;1.448;2023-12-29T12:34:24;100120.69;;;12.44;100.00
28306;BME280;7516;43.570;1.448;2023-12-29T12:36:53;100116.69;;;12.57;100.00
28306;BME280;7516;43.570;1.448;2023-12-29T12:39:22;100114.81;;;12.65;100.00
28306;BME280;7516;43.570;1.448;2023-12-29T12:41:50;100118.13;;;12.82;100.00
28306;BME280;7516;43.570;1.448;2023-12-29T12:44:18;100107.88;;;12.87;100.00
28306;BME280;7516;43.570;1.448;2023-12-29T12:46:50;100093.41;;;12.91;100.00
28306;BME280;7516;43.570;1.448;2023-12-29T12:49:21;100087.31;;;12.91;100.00
28306;BME280;7516;43.570;1.448;2023-12-29T12:51:49;100089.78;;;12.92;100.00
28306;BME280;7516;43.570;1.448;2023-12-29T12:54:18;100087.75;;;12.94;100.00
28306;BME280;7516;43.570;1.448;2023-12-29T12:56:46;100081.81;;;13.00;100.00
28306;BME280;7516;43.570;1.448;2023-12-29T12:59:15;100087.41;;;12.97;100.00
28306;BME280;7516;43.570;1.448;2023-12-29T13:01:43;100092.13;;;13.02;100.00
28306;BME280;7516;43.570;1.448;2023-12-29T13:04:11;100079.34;;;12.99;100.00
28306;BME280;7516;43.570;1.448;2023-12-29T13:06:42;100070.81;;;12.97;100.00